createdAt,value
2022-10-11T00:00:49.121Z,52.50
2022-10-11T00:03:17.328Z,53.90
2022-10-11T00:05:45.500Z,55.20
2022-10-11T00:08:14.460Z,54.60
2022-10-11T00:10:42.778Z,49.60
2022-10-11T00:13:11.106Z,48.40
2022-10-11T00:15:40.989Z,52.10
2022-10-11T00:18:09.192Z,55.60
2022-10-11T00:20:37.196Z,57.40
2022-10-11T00:23:05.323Z,57.90
2022-10-11T00:25:33.459Z,55.20
2022-10-11T00:28:01.574Z,51.10
2022-10-11T00:30:29.615Z,50.00
2022-10-11T00:32:57.852Z,48.80
2022-10-11T00:35:26.582Z,47.70
2022-10-11T00:37:57.330Z,46.90
2022-10-11T00:40:25.589Z,46.00
2022-10-11T00:42:53.697Z,45.40
2022-10-11T00:45:28.054Z,48.40
2022-10-11T00:48:00.986Z,51.50
2022-10-11T00:50:33.691Z,53.90
2022-10-11T00:53:09.463Z,55.20
2022-10-11T00:55:42.979Z,55.90
2022-10-11T00:58:13.194Z,50.30
2022-10-11T01:00:41.504Z,48.60
2022-10-11T01:03:09.859Z,50.20
2022-10-11T01:05:40.480Z,54.80
2022-10-11T01:08:09.473Z,57.10
2022-10-11T01:10:37.566Z,58.00
2022-10-11T01:13:17.633Z,55.70
2022-10-11T01:16:01.751Z,51.40
2022-10-11T01:18:33.146Z,50.00
2022-10-11T01:21:42.534Z,49.00
2022-10-11T01:24:16.611Z,47.90
2022-10-11T01:27:27.306Z,47.40
2022-10-11T01:30:24.973Z,45.80
2022-10-11T01:33:16.436Z,48.20
2022-10-11T01:36:22.063Z,52.40
2022-10-11T01:38:58.742Z,54.60
2022-10-11T01:41:35.177Z,56.20
2022-10-11T01:44:04.282Z,56.60
2022-10-11T01:46:33.556Z,53.90
2022-10-11T01:49:03.050Z,50.80
2022-10-11T01:51:36.447Z,49.70
2022-10-11T01:54:19.775Z,54.20
2022-10-11T01:56:59.619Z,57.40
2022-10-11T01:59:59.621Z,59.10
2022-10-11T02:03:01.423Z,59.30
2022-10-11T02:05:57.622Z,54.00
2022-10-11T02:08:42.588Z,51.80
2022-10-11T02:11:26.892Z,50.20
2022-10-11T02:14:00.837Z,48.80
2022-10-11T02:16:35.728Z,48.30
2022-10-11T02:19:07.211Z,47.30
2022-10-11T02:21:39.279Z,46.20
2022-10-11T02:24:16.254Z,48.00
2022-10-11T02:26:49.838Z,52.40
2022-10-11T02:29:20.893Z,54.50
2022-10-11T02:31:50.854Z,56.00
2022-10-11T02:34:24.160Z,57.00
2022-10-11T02:37:30.681Z,57.50
2022-10-11T02:40:16.863Z,52.80
2022-10-11T02:42:51.727Z,50.70
2022-10-11T02:45:30.877Z,53.10
2022-10-11T02:47:59.588Z,57.30
2022-10-11T02:50:28.246Z,59.30
2022-10-11T02:52:56.040Z,60.10
2022-10-11T02:55:24.288Z,60.40
2022-10-11T02:57:52.400Z,55.90
2022-10-11T03:00:20.617Z,53.50
2022-10-11T03:02:48.811Z,51.80
2022-10-11T03:05:17.002Z,50.60
2022-10-11T03:07:45.337Z,49.40
2022-10-11T03:10:13.508Z,48.50
2022-10-11T03:12:41.616Z,47.60
2022-10-11T03:15:10.188Z,46.70
2022-10-11T03:17:38.139Z,46.70
2022-10-11T03:20:07.167Z,50.80
2022-10-11T03:22:35.522Z,53.70
2022-10-11T03:25:06.910Z,55.50
2022-10-11T03:27:35.239Z,56.60
2022-10-11T03:30:03.797Z,57.40
2022-10-11T03:32:31.995Z,57.70
2022-10-11T03:35:00.347Z,54.40
2022-10-11T03:37:28.579Z,51.50
2022-10-11T03:39:56.713Z,50.70
2022-10-11T03:42:25.026Z,55.20
2022-10-11T03:44:53.135Z,58.20
2022-10-11T03:47:21.259Z,59.20
2022-10-11T03:49:49.416Z,60.40
2022-10-11T03:52:17.576Z,60.20
2022-10-11T03:54:45.693Z,55.40
2022-10-11T03:57:13.869Z,53.00
2022-10-11T03:59:42.022Z,51.80
2022-10-11T04:02:10.512Z,50.80
2022-10-11T04:04:38.809Z,49.80
2022-10-11T04:07:07.279Z,50.70
2022-10-11T04:09:35.994Z,54.80
2022-10-11T04:12:04.707Z,57.40
2022-10-11T04:14:32.533Z,59.00
2022-10-11T04:17:00.818Z,60.10
2022-10-11T04:19:29.206Z,60.80
2022-10-11T04:21:57.431Z,61.10
2022-10-11T04:24:25.691Z,57.60
2022-10-11T04:26:53.843Z,53.90
2022-10-11T04:29:22.030Z,52.30
2022-10-11T04:31:50.289Z,51.60
2022-10-11T04:34:18.557Z,50.30
2022-10-11T04:36:49.938Z,49.20
2022-10-11T04:39:18.542Z,48.00
2022-10-11T04:41:46.764Z,47.20
2022-10-11T04:44:15.020Z,49.00
2022-10-11T04:46:43.490Z,52.70
2022-10-11T04:49:11.650Z,55.10
2022-10-11T04:51:39.821Z,56.70
2022-10-11T04:54:07.993Z,57.70
2022-10-11T04:56:36.241Z,58.40
2022-10-11T04:59:04.594Z,58.50
2022-10-11T05:01:33.049Z,54.30
2022-10-11T05:04:01.548Z,51.60
2022-10-11T05:06:31.683Z,52.30
2022-10-11T05:08:59.916Z,57.00
2022-10-11T05:11:28.239Z,59.20
2022-10-11T05:13:56.575Z,60.50
2022-10-11T05:16:25.808Z,60.80
2022-10-11T05:18:54.104Z,60.80
2022-10-11T05:21:27.408Z,56.20
2022-10-11T05:23:56.636Z,53.70
2022-10-11T05:26:26.481Z,52.10
2022-10-11T05:28:55.704Z,50.80
2022-10-11T05:31:24.196Z,51.00
2022-10-11T05:33:52.685Z,55.50
2022-10-11T05:36:21.022Z,57.80
2022-10-11T05:38:49.161Z,59.30
2022-10-11T05:41:18.509Z,60.80
2022-10-11T05:43:46.536Z,61.60
2022-10-11T05:46:14.817Z,62.10
2022-10-11T05:48:43.045Z,62.10
2022-10-11T05:51:12.876Z,57.30
2022-10-11T05:53:41.102Z,54.50
2022-10-11T05:56:22.493Z,53.00
2022-10-11T05:58:51.333Z,51.60
2022-10-11T06:01:25.643Z,50.60
2022-10-11T06:03:54.315Z,49.70
2022-10-11T06:06:22.667Z,53.20
2022-10-11T06:08:50.791Z,56.50
2022-10-11T06:11:27.995Z,58.10
2022-10-11T06:13:57.905Z,60.00
2022-10-11T06:16:26.267Z,61.20
2022-10-11T06:18:55.656Z,62.10
2022-10-11T06:21:24.920Z,62.40
2022-10-11T06:23:58.278Z,62.60
2022-10-11T06:26:29.609Z,56.90
2022-10-11T06:28:58.270Z,54.60
2022-10-11T06:31:26.748Z,53.00
2022-10-11T06:33:54.714Z,51.90
2022-10-11T06:36:22.993Z,50.90
2022-10-11T06:38:54.734Z,54.50
2022-10-11T06:41:28.735Z,58.00
2022-10-11T06:43:57.614Z,59.60
2022-10-11T06:46:26.657Z,61.20
2022-10-11T06:48:55.953Z,62.00
2022-10-11T06:51:24.945Z,62.70
2022-10-11T06:53:54.739Z,62.90
2022-10-11T06:56:23.423Z,63.00
2022-10-11T06:58:51.469Z,58.60
2022-10-11T07:01:19.848Z,55.40
2022-10-11T07:03:48.963Z,53.80
2022-10-11T07:06:20.325Z,52.40
2022-10-11T07:08:49.356Z,51.40
2022-10-11T07:11:21.175Z,51.30
2022-10-11T07:13:55.202Z,55.60
2022-10-11T07:16:23.764Z,58.30
2022-10-11T07:19:00.496Z,59.90
2022-10-11T07:21:31.321Z,61.40
2022-10-11T07:24:00.796Z,62.20
2022-10-11T07:26:36.651Z,62.40
2022-10-11T07:29:07.829Z,63.10
2022-10-11T07:31:40.498Z,63.00
2022-10-11T07:34:09.293Z,58.10
2022-10-11T07:36:37.294Z,55.80
2022-10-11T07:39:07.514Z,54.10
2022-10-11T07:41:36.278Z,52.40
2022-10-11T07:44:04.097Z,51.30
2022-10-11T07:46:32.350Z,51.10
2022-10-11T07:49:03.408Z,50.70
2022-10-11T07:51:31.518Z,55.40
2022-10-11T07:54:03.374Z,57.70
2022-10-11T07:56:34.989Z,59.70
2022-10-11T07:59:03.535Z,61.10
2022-10-11T08:01:31.741Z,61.80
2022-10-11T08:04:00.550Z,62.60
2022-10-11T08:06:30.829Z,62.80
2022-10-11T08:09:00.757Z,62.80
2022-10-11T08:11:37.556Z,59.40
2022-10-11T08:14:08.124Z,55.60
2022-10-11T08:16:39.650Z,54.10
2022-10-11T08:19:08.434Z,52.80
2022-10-11T08:21:36.979Z,51.90
2022-10-11T08:24:06.250Z,52.30
2022-10-11T08:26:35.496Z,57.10
2022-10-11T08:29:03.813Z,59.00
2022-10-11T08:31:33.311Z,61.10
2022-10-11T08:34:01.648Z,62.50
2022-10-11T08:36:29.879Z,63.70
2022-10-11T08:38:58.961Z,65.10
2022-10-11T08:41:38.539Z,65.50
2022-10-11T08:44:15.926Z,64.30
2022-10-11T08:46:49.483Z,59.40
2022-10-11T08:49:27.435Z,56.80
2022-10-11T08:51:59.834Z,55.90
2022-10-11T08:55:08.609Z,54.50
2022-10-11T08:57:39.620Z,57.30
2022-10-11T09:00:14.195Z,60.50
2022-10-11T09:03:14.960Z,62.70
2022-10-11T09:06:04.967Z,64.30
2022-10-11T09:08:41.556Z,66.00
2022-10-11T09:11:24.829Z,66.80
2022-10-11T09:14:14.557Z,67.20
2022-10-11T09:17:02.195Z,67.50
2022-10-11T09:19:54.110Z,61.20
2022-10-11T09:22:30.785Z,58.30
2022-10-11T09:25:23.202Z,56.50
2022-10-11T09:28:24.017Z,54.50
2022-10-11T09:30:55.364Z,57.50
2022-10-11T09:33:56.540Z,60.70
2022-10-11T09:36:42.023Z,62.70
2022-10-11T09:39:27.917Z,63.90
2022-10-11T09:42:03.664Z,65.30
2022-10-11T09:44:46.977Z,66.10
2022-10-11T09:47:22.518Z,66.50
2022-10-11T09:50:06.303Z,66.60
2022-10-11T09:52:34.693Z,62.10
2022-10-11T09:55:04.044Z,58.70
2022-10-11T09:57:40.006Z,57.10
2022-10-11T10:00:25.090Z,55.70
2022-10-11T10:02:58.642Z,56.20
2022-10-11T10:05:33.048Z,60.30
2022-10-11T10:08:20.699Z,62.70
2022-10-11T10:10:59.578Z,64.50
2022-10-11T10:13:45.107Z,65.80
2022-10-11T10:16:32.702Z,66.80
2022-10-11T10:19:17.275Z,67.50
2022-10-11T10:21:54.045Z,67.90
2022-10-11T10:24:38.222Z,67.90
2022-10-11T10:27:17.045Z,61.70
2022-10-11T10:30:03.368Z,58.50
2022-10-11T10:33:01.468Z,57.30
2022-10-11T10:35:45.644Z,55.50
2022-10-11T10:38:25.567Z,54.20
2022-10-11T10:41:03.033Z,54.80
2022-10-11T10:43:35.480Z,59.00
2022-10-11T10:46:27.316Z,61.20
2022-10-11T10:49:53.049Z,62.90
2022-10-11T10:52:58.916Z,64.20
2022-10-11T10:55:36.628Z,65.10
2022-10-11T10:58:38.957Z,65.60
2022-10-11T11:01:14.666Z,65.80
2022-10-11T11:03:53.439Z,60.10
2022-10-11T11:06:38.460Z,57.60
2022-10-11T11:09:26.636Z,55.80
2022-10-11T11:11:54.789Z,54.40
2022-10-11T11:15:09.704Z,54.00
2022-10-11T11:17:56.858Z,59.80
2022-10-11T11:20:43.484Z,61.80
2022-10-11T11:23:39.363Z,63.50
2022-10-11T11:26:44.578Z,64.80
2022-10-11T11:29:42.312Z,65.80
2022-10-11T11:32:27.692Z,66.40
2022-10-11T11:35:00.953Z,66.50
2022-10-11T11:37:37.817Z,66.50
2022-10-11T11:40:19.850Z,60.30
2022-10-11T11:43:00.225Z,58.10
2022-10-11T11:45:42.064Z,56.50
2022-10-11T11:48:23.002Z,54.80
2022-10-11T11:50:57.498Z,53.40
2022-10-11T11:53:53.376Z,55.40
2022-10-11T11:56:39.979Z,59.40
2022-10-11T11:59:25.933Z,62.20
2022-10-11T12:02:23.350Z,63.50
2022-10-11T12:04:53.651Z,65.20
2022-10-11T12:07:24.331Z,66.20
2022-10-11T12:10:26.113Z,67.00
2022-10-11T12:13:13.064Z,67.20
2022-10-11T12:15:57.169Z,63.00
2022-10-11T12:18:25.705Z,59.10
2022-10-11T12:21:19.299Z,57.60
2022-10-11T12:23:53.578Z,56.60
2022-10-11T12:26:38.507Z,55.00
2022-10-11T12:29:54.125Z,53.40
2022-10-11T12:32:28.315Z,52.50
2022-10-11T12:35:33.464Z,53.10
2022-10-11T12:38:18.561Z,57.70
2022-10-11T12:40:48.944Z,60.40
2022-10-11T12:43:20.323Z,62.40
2022-10-11T12:45:48.737Z,63.40
2022-10-11T12:48:40.742Z,64.70
2022-10-11T12:52:02.196Z,64.90
2022-10-11T12:54:54.588Z,65.20
2022-10-11T12:57:47.401Z,61.40
2022-10-11T13:00:25.882Z,58.00
2022-10-11T13:02:54.550Z,56.70
2022-10-11T13:06:01.660Z,55.30
2022-10-11T13:08:36.653Z,54.10
2022-10-11T13:11:17.103Z,52.80
2022-10-11T13:13:54.590Z,52.10
2022-10-11T13:16:27.755Z,51.20
2022-10-11T13:18:59.727Z,50.60
2022-10-11T13:21:28.154Z,50.40
2022-10-11T13:24:23.375Z,54.10
2022-10-11T13:26:53.399Z,57.40
2022-10-11T13:29:33.267Z,60.10
2022-10-11T13:32:17.332Z,62.10
2022-10-11T13:34:48.047Z,63.50
2022-10-11T13:37:22.109Z,64.50
2022-10-11T13:39:53.148Z,65.00
2022-10-11T13:42:34.052Z,61.00
2022-10-11T13:45:03.318Z,57.90
2022-10-11T13:47:33.384Z,58.50
2022-10-11T13:50:10.818Z,62.50
2022-10-11T13:52:59.552Z,64.80
2022-10-11T13:55:29.286Z,66.30
2022-10-11T13:57:59.847Z,67.30
2022-10-11T14:00:38.438Z,67.80
2022-10-11T14:03:26.680Z,64.30
2022-10-11T14:06:00.547Z,59.90
2022-10-11T14:08:39.198Z,57.70
2022-10-11T14:11:07.558Z,56.50
2022-10-11T14:13:39.588Z,55.00
2022-10-11T14:16:21.874Z,53.70
2022-10-11T14:18:50.208Z,52.60
2022-10-11T14:21:21.396Z,51.70
2022-10-11T14:24:06.974Z,50.70
2022-10-11T14:26:38.931Z,50.20
2022-10-11T14:29:15.279Z,49.30
2022-10-11T14:31:43.776Z,48.90
2022-10-11T14:34:19.264Z,50.30
2022-10-11T14:36:48.352Z,54.70
2022-10-11T14:39:19.412Z,57.30
2022-10-11T14:41:48.142Z,59.70
2022-10-11T14:44:16.998Z,61.20
2022-10-11T14:46:46.103Z,62.00
2022-10-11T14:49:22.441Z,62.90
2022-10-11T14:51:52.305Z,62.80
2022-10-11T14:54:22.339Z,58.00
2022-10-11T14:56:56.526Z,55.70
2022-10-11T14:59:28.486Z,56.80
2022-10-11T15:01:56.986Z,62.00
2022-10-11T15:04:27.212Z,63.40
2022-10-11T15:06:57.738Z,64.90
2022-10-11T15:09:29.474Z,65.90
2022-10-11T15:11:57.598Z,64.30
2022-10-11T15:14:26.393Z,59.30
2022-10-11T15:16:54.808Z,57.20
2022-10-11T15:19:25.539Z,55.90
2022-10-11T15:21:54.079Z,54.70
2022-10-11T15:24:22.140Z,53.20
2022-10-11T15:26:50.728Z,52.20
2022-10-11T15:29:19.047Z,51.80
2022-10-11T15:31:47.328Z,50.60
2022-10-11T15:34:15.863Z,49.90
2022-10-11T15:36:44.585Z,49.20
2022-10-11T15:39:26.293Z,48.60
2022-10-11T15:41:54.928Z,48.40
2022-10-11T15:44:23.166Z,48.10
2022-10-11T15:46:51.393Z,47.80
2022-10-11T15:49:19.612Z,48.60
2022-10-11T15:51:47.840Z,52.30
2022-10-11T15:54:16.066Z,56.60
2022-10-11T15:56:44.416Z,52.30
2022-10-11T15:59:12.560Z,50.60
2022-10-11T16:01:40.874Z,52.80
2022-10-11T16:04:10.008Z,55.90
2022-10-11T16:06:38.259Z,58.90
2022-10-11T16:09:06.467Z,54.50
2022-10-11T16:11:34.654Z,52.40
2022-10-11T16:14:02.687Z,51.30
2022-10-11T16:17:40.699Z,50.50
2022-10-11T16:20:09.451Z,51.10
2022-10-11T16:22:37.630Z,52.60
2022-10-11T16:25:06.024Z,50.70
2022-10-11T16:27:34.601Z,49.20
2022-10-11T16:30:04.003Z,49.10
2022-10-11T16:32:34.188Z,48.50
2022-10-11T16:35:02.530Z,47.70
2022-10-11T16:37:32.951Z,47.50
2022-10-11T16:40:01.332Z,47.70
2022-10-11T16:42:29.466Z,49.20
2022-10-11T16:44:57.676Z,47.80
2022-10-11T16:47:25.902Z,47.50
2022-10-11T16:49:54.046Z,49.70
2022-10-11T16:52:22.083Z,49.10
2022-10-11T16:54:50.485Z,47.80
2022-10-11T16:57:19.783Z,47.00
2022-10-11T16:59:47.882Z,46.70
2022-10-11T17:02:22.408Z,46.20
2022-10-11T18:25:34.347Z,54.90
2022-10-11T18:28:02.597Z,58.30
2022-10-11T18:30:30.698Z,56.90
2022-10-11T18:32:58.839Z,53.40
2022-10-11T18:35:27.127Z,51.60
2022-10-11T18:38:00.041Z,50.40
2022-10-11T18:40:29.095Z,49.50
2022-10-11T18:42:57.256Z,49.10
2022-10-11T18:45:25.279Z,48.10
2022-10-11T18:47:53.630Z,47.40
2022-10-11T18:50:21.754Z,47.70
2022-10-11T18:52:50.338Z,51.30
2022-10-11T18:55:18.420Z,52.90
2022-10-11T18:57:46.649Z,48.90
2022-10-11T19:00:37.762Z,47.90
2022-10-11T19:03:03.445Z,50.00
2022-10-11T19:05:31.555Z,54.40
2022-10-11T19:10:11.601Z,53.90
2022-10-11T19:12:39.719Z,54.90
2022-10-11T19:15:08.264Z,54.50
2022-10-11T19:17:39.313Z,50.70
2022-10-11T19:20:07.914Z,49.50
2022-10-11T19:22:37.306Z,48.80
2022-10-11T19:25:06.041Z,48.00
2022-10-11T19:27:33.879Z,47.00
2022-10-11T19:30:02.130Z,46.60
2022-10-11T19:32:30.317Z,49.60
2022-10-11T19:38:45.662Z,54.90
2022-10-11T19:41:15.422Z,56.20
2022-10-11T19:43:43.955Z,54.30
2022-10-11T19:46:15.832Z,50.90
2022-10-11T19:48:46.394Z,50.00
2022-10-11T19:51:16.294Z,49.10
2022-10-11T19:53:45.428Z,48.30
2022-10-11T19:56:16.167Z,47.90
2022-10-11T19:58:45.297Z,47.10
2022-10-11T20:01:19.629Z,48.10
2022-10-11T20:03:50.978Z,51.80
2022-10-11T20:06:24.165Z,55.20
2022-10-11T20:09:10.303Z,52.50
2022-10-11T20:11:41.434Z,49.80
2022-10-11T20:14:09.615Z,49.30
2022-10-11T20:16:37.783Z,53.80
2022-10-11T20:19:05.931Z,56.80
2022-10-11T20:21:34.086Z,58.40
2022-10-11T20:24:04.372Z,53.70
2022-10-11T20:26:32.621Z,51.00
2022-10-11T20:29:00.949Z,50.00
2022-10-11T20:31:32.225Z,49.20
2022-10-11T20:34:02.898Z,48.20
2022-10-11T20:36:32.343Z,47.30
2022-10-11T20:39:00.859Z,47.00
2022-10-11T20:41:31.443Z,50.80
2022-10-11T20:44:01.761Z,53.70
2022-10-11T20:46:32.635Z,55.90
2022-10-11T20:49:07.212Z,57.60
2022-10-11T20:51:37.947Z,54.90
2022-10-11T20:54:06.708Z,51.20
2022-10-11T20:56:35.053Z,50.00
2022-10-11T20:59:03.355Z,54.10
2022-10-11T21:01:35.166Z,57.60
2022-10-11T21:04:04.479Z,59.10
2022-10-11T21:06:33.894Z,60.10
2022-10-11T21:09:02.377Z,59.70
2022-10-11T21:11:32.974Z,54.10
2022-10-11T21:14:03.527Z,52.00
2022-10-11T21:16:33.111Z,50.90
2022-10-11T21:19:02.468Z,49.70
2022-10-11T21:21:31.604Z,48.90
2022-10-11T21:24:02.304Z,48.00
2022-10-11T21:26:31.648Z,47.30
2022-10-11T21:29:00.199Z,49.70
2022-10-11T21:31:33.589Z,52.60
2022-10-11T21:34:03.239Z,55.40
2022-10-11T21:36:31.860Z,57.10
2022-10-11T21:39:00.184Z,57.00
2022-10-11T21:41:28.751Z,52.30
2022-10-11T21:44:00.207Z,50.40
2022-10-11T21:47:04.774Z,54.00
2022-10-11T21:49:19.663Z,57.20
2022-10-11T21:53:55.261Z,59.60
2022-10-11T21:56:23.790Z,60.60
2022-10-11T21:58:52.383Z,57.30
2022-10-11T22:01:21.228Z,53.70
2022-10-11T22:03:49.615Z,52.50
2022-10-11T22:06:18.131Z,51.40
2022-10-11T22:08:46.555Z,50.30
2022-10-11T22:11:14.855Z,49.60
2022-10-11T22:13:43.656Z,48.70
2022-10-11T22:16:13.758Z,47.90
2022-10-11T22:18:43.026Z,49.70
2022-10-11T22:21:20.304Z,53.50
2022-10-11T22:23:51.526Z,56.10
2022-10-11T22:26:22.677Z,58.10
2022-10-11T22:28:51.194Z,59.40
2022-10-11T22:31:20.621Z,59.10
2022-10-11T22:33:49.853Z,53.90
2022-10-11T22:36:18.181Z,52.10
2022-10-11T22:38:47.340Z,55.20
2022-10-11T22:41:15.552Z,58.70
2022-10-11T22:43:43.768Z,60.50
2022-10-11T22:46:12.015Z,61.80
2022-10-11T22:48:40.241Z,62.20
2022-10-11T22:51:08.847Z,58.50
2022-10-11T22:53:37.000Z,54.80
2022-10-11T22:56:06.546Z,53.10
2022-10-11T22:58:34.995Z,51.90
2022-10-11T23:01:14.548Z,50.80
2022-10-11T23:03:43.175Z,49.90
2022-10-11T23:06:11.221Z,48.80
2022-10-11T23:08:39.448Z,47.90
2022-10-11T23:11:08.620Z,47.60
2022-10-11T23:13:37.257Z,49.60
2022-10-11T23:16:12.748Z,53.40
2022-10-11T23:18:41.052Z,55.90
2022-10-11T23:21:09.550Z,57.60
2022-10-11T23:23:37.852Z,58.60
2022-10-11T23:26:15.199Z,59.20
2022-10-11T23:28:44.616Z,56.30
2022-10-11T23:31:16.020Z,52.50
2022-10-11T23:33:45.681Z,51.80
2022-10-11T23:36:18.670Z,56.20
2022-10-11T23:38:55.030Z,59.20
2022-10-11T23:41:28.140Z,61.20
2022-10-11T23:43:56.863Z,61.90
2022-10-11T23:46:25.323Z,61.90
2022-10-11T23:48:53.623Z,58.40
2022-10-11T23:51:22.024Z,55.00
2022-10-11T23:53:50.120Z,53.60
2022-10-11T23:56:18.451Z,52.40
2022-10-11T23:58:46.743Z,51.00
